createdAt,value
2024-05-09T00:00:22.164Z,13.16
2024-05-09T00:01:16.758Z,13.13
2024-05-09T00:02:15.693Z,13.16
2024-05-09T00:03:15.784Z,13.16
2024-05-09T00:04:15.680Z,13.12
2024-05-09T00:05:15.802Z,13.04
2024-05-09T00:06:15.690Z,13.04
2024-05-09T00:07:15.595Z,13.13
2024-05-09T00:08:15.662Z,12.97
2024-05-09T00:09:15.583Z,13.05
2024-05-09T00:10:24.994Z,13.03
2024-05-09T00:11:16.609Z,13.00
2024-05-09T00:12:15.644Z,12.95
2024-05-09T00:13:15.528Z,13.03
2024-05-09T00:14:15.548Z,12.95
2024-05-09T00:15:15.606Z,13.00
2024-05-09T00:16:15.503Z,12.97
2024-05-09T00:17:15.609Z,12.97
2024-05-09T00:18:15.583Z,12.95
2024-05-09T00:19:15.591Z,12.90
2024-05-09T00:20:20.522Z,12.93
2024-05-09T00:21:16.502Z,12.91
2024-05-09T00:22:15.425Z,12.93
2024-05-09T00:23:15.595Z,12.93
2024-05-09T00:24:15.414Z,12.87
2024-05-09T00:25:15.392Z,12.87
2024-05-09T00:26:15.460Z,12.85
2024-05-09T00:27:15.361Z,12.86
2024-05-09T00:28:15.355Z,12.79
2024-05-09T00:29:15.381Z,12.87
2024-05-09T00:30:24.145Z,12.86
2024-05-09T00:31:16.342Z,12.86
2024-05-09T00:32:15.379Z,12.87
2024-05-09T00:33:15.426Z,12.86
2024-05-09T00:34:15.418Z,12.82
2024-05-09T00:35:15.307Z,12.80
2024-05-09T00:36:15.291Z,12.73
2024-05-09T00:37:15.256Z,12.79
2024-05-09T00:38:15.282Z,12.68
2024-05-09T00:39:15.229Z,12.60
2024-05-09T00:40:22.912Z,12.58
2024-05-09T00:41:18.959Z,12.61
2024-05-09T00:42:15.203Z,12.64
2024-05-09T00:43:15.585Z,12.62
2024-05-09T00:44:15.191Z,12.58
2024-05-09T00:45:15.199Z,12.57
2024-05-09T00:46:15.165Z,12.61
2024-05-09T00:47:15.244Z,12.49
2024-05-09T00:48:17.744Z,12.47
2024-05-09T00:49:16.240Z,12.50
2024-05-09T00:50:19.426Z,12.49
2024-05-09T00:51:16.238Z,12.46
2024-05-09T00:52:15.099Z,12.57
2024-05-09T00:53:15.488Z,12.46
2024-05-09T00:54:15.063Z,12.45
2024-05-09T00:55:15.063Z,12.47
2024-05-09T00:56:15.065Z,12.45
2024-05-09T00:57:15.046Z,12.42
2024-05-09T00:58:15.012Z,12.42
2024-05-09T00:59:15.057Z,12.40
2024-05-09T01:00:22.528Z,12.36
2024-05-09T01:01:16.040Z,12.45
2024-05-09T01:02:15.075Z,12.36
2024-05-09T01:03:15.252Z,12.32
2024-05-09T01:04:15.029Z,12.46
2024-05-09T01:05:15.092Z,12.45
2024-05-09T01:06:14.956Z,12.45
2024-05-09T01:07:14.921Z,12.40
2024-05-09T01:08:14.953Z,12.40
2024-05-09T01:09:14.915Z,12.37
2024-05-09T01:10:21.202Z,12.32
2024-05-09T01:11:15.967Z,12.29
2024-05-09T01:12:15.103Z,12.31
2024-05-09T01:13:14.876Z,12.31
2024-05-09T01:14:14.873Z,12.35
2024-05-09T01:15:14.825Z,12.29
2024-05-09T01:16:14.821Z,12.28
2024-05-09T01:17:15.015Z,12.28
2024-05-09T01:18:15.103Z,12.32
2024-05-09T01:19:15.172Z,12.27
2024-05-09T01:20:20.223Z,12.27
2024-05-09T01:21:15.880Z,12.21
2024-05-09T01:22:14.750Z,12.22
2024-05-09T01:23:16.215Z,12.18
2024-05-09T01:24:14.742Z,12.20
2024-05-09T01:25:14.725Z,12.17
2024-05-09T01:26:14.785Z,12.21
2024-05-09T01:27:14.713Z,12.22
2024-05-09T01:28:14.715Z,12.21
2024-05-09T01:29:14.712Z,12.10
2024-05-09T01:30:17.323Z,12.17
2024-05-09T01:31:15.662Z,12.18
2024-05-09T01:32:14.723Z,12.17
2024-05-09T01:33:14.885Z,12.15
2024-05-09T01:34:14.670Z,12.06
2024-05-09T01:35:14.646Z,12.18
2024-05-09T01:36:14.639Z,12.07
2024-05-09T01:37:14.582Z,12.12
2024-05-09T01:38:14.602Z,12.07
2024-05-09T01:39:14.575Z,12.10
2024-05-09T01:40:18.648Z,12.02
2024-05-09T01:41:15.604Z,12.07
2024-05-09T01:42:14.528Z,12.06
2024-05-09T01:43:14.523Z,12.07
2024-05-09T01:44:14.551Z,12.02
2024-05-09T01:45:14.502Z,11.94
2024-05-09T01:46:14.482Z,12.02
2024-05-09T01:47:14.628Z,12.00
2024-05-09T01:48:14.733Z,12.02
2024-05-09T01:49:14.585Z,12.00
2024-05-09T01:51:14.640Z,12.02
2024-05-09T01:52:14.423Z,12.00
2024-05-09T01:53:15.228Z,12.00
2024-05-09T01:54:14.391Z,11.99
2024-05-09T01:55:14.394Z,12.00
2024-05-09T01:56:14.447Z,12.03
2024-05-09T01:57:14.372Z,12.04
2024-05-09T01:58:14.352Z,12.00
2024-05-09T01:59:14.462Z,12.02
2024-05-09T02:00:22.112Z,12.02
2024-05-09T02:01:15.354Z,12.00
2024-05-09T02:02:14.490Z,11.99
2024-05-09T02:03:16.782Z,12.02
2024-05-09T02:04:14.547Z,11.94
2024-05-09T02:05:14.464Z,11.99
2024-05-09T02:06:14.326Z,11.97
2024-05-09T02:07:14.531Z,12.00
2024-05-09T02:08:14.270Z,11.90
2024-05-09T02:09:14.216Z,11.90
2024-05-09T02:10:20.415Z,11.87
2024-05-09T02:11:15.272Z,11.88
2024-05-09T02:12:14.371Z,11.80
2024-05-09T02:13:14.191Z,11.86
2024-05-09T02:14:14.218Z,11.83
2024-05-09T02:15:14.166Z,11.90
2024-05-09T02:16:14.150Z,11.83
2024-05-09T02:17:14.280Z,11.88
2024-05-09T02:18:14.485Z,11.88
2024-05-09T02:19:14.279Z,11.86
2024-05-09T02:20:22.539Z,11.73
2024-05-09T02:21:15.170Z,11.69
2024-05-09T02:22:14.078Z,11.73
2024-05-09T02:23:14.205Z,11.70
2024-05-09T02:24:14.069Z,11.73
2024-05-09T02:25:14.049Z,11.70
2024-05-09T02:26:14.130Z,11.68
2024-05-09T02:27:14.024Z,11.69
2024-05-09T02:28:14.024Z,11.73
2024-05-09T02:29:14.326Z,11.70
2024-05-09T02:30:22.503Z,11.63
2024-05-09T02:31:14.974Z,11.65
2024-05-09T02:32:14.182Z,11.66
2024-05-09T02:33:14.675Z,11.57
2024-05-09T02:34:13.996Z,11.63
2024-05-09T02:35:13.972Z,11.54
2024-05-09T02:36:13.922Z,11.59
2024-05-09T02:37:13.917Z,11.51
2024-05-09T02:38:13.987Z,11.55
2024-05-09T02:39:13.980Z,11.54
2024-05-09T02:40:15.177Z,11.52
2024-05-09T02:41:14.908Z,11.48
2024-05-09T02:42:13.880Z,11.52
2024-05-09T02:43:13.837Z,11.48
2024-05-09T02:44:13.891Z,11.52
2024-05-09T02:45:13.859Z,11.57
2024-05-09T02:46:13.829Z,11.54
2024-05-09T02:47:13.896Z,11.51
2024-05-09T02:48:14.423Z,11.44
2024-05-09T02:49:13.912Z,11.43
2024-05-09T02:50:19.239Z,11.41
2024-05-09T02:51:14.810Z,11.47
2024-05-09T02:52:13.745Z,11.37
2024-05-09T02:53:14.439Z,11.45
2024-05-09T02:54:13.771Z,11.47
2024-05-09T02:55:13.735Z,11.41
2024-05-09T02:56:13.782Z,11.43
2024-05-09T02:57:13.685Z,11.44
2024-05-09T02:58:13.706Z,11.40
2024-05-09T02:59:13.686Z,11.26
2024-05-09T03:00:19.052Z,11.35
2024-05-09T03:01:14.684Z,11.25
2024-05-09T03:02:13.777Z,11.33
2024-05-09T03:03:15.467Z,11.30
2024-05-09T03:04:13.707Z,11.27
2024-05-09T03:05:13.619Z,11.25
2024-05-09T03:06:13.590Z,11.19
2024-05-09T03:07:13.574Z,11.19
2024-05-09T03:08:13.703Z,11.19
2024-05-09T03:09:13.548Z,11.22
2024-05-09T03:10:21.915Z,11.19
2024-05-09T03:11:14.672Z,11.15
2024-05-09T03:12:13.674Z,11.18
2024-05-09T03:13:15.038Z,11.19
2024-05-09T03:14:13.527Z,11.14
2024-05-09T03:15:13.516Z,11.19
2024-05-09T03:16:13.473Z,11.15
2024-05-09T03:17:13.490Z,11.15
2024-05-09T03:18:14.005Z,11.19
2024-05-09T03:19:13.695Z,11.10
2024-05-09T03:20:20.535Z,11.05
2024-05-09T03:21:14.665Z,11.08
2024-05-09T03:22:13.405Z,11.00
2024-05-09T03:23:13.551Z,10.94
2024-05-09T03:24:13.422Z,10.94
2024-05-09T03:25:13.370Z,11.04
2024-05-09T03:26:13.397Z,10.93
2024-05-09T03:27:13.364Z,10.96
2024-05-09T03:28:13.344Z,11.04
2024-05-09T03:29:13.393Z,11.04
2024-05-09T03:30:25.889Z,11.05
2024-05-09T03:31:14.326Z,11.08
2024-05-09T03:32:13.414Z,10.97
2024-05-09T03:33:14.418Z,11.05
2024-05-09T03:34:13.319Z,10.99
2024-05-09T03:35:13.290Z,10.97
2024-05-09T03:36:13.263Z,10.99
2024-05-09T03:37:13.277Z,10.92
2024-05-09T03:38:13.375Z,10.89
2024-05-09T03:39:13.219Z,10.94
2024-05-09T03:40:20.713Z,10.94
2024-05-09T03:41:14.258Z,10.97
2024-05-09T03:42:13.189Z,10.92
2024-05-09T03:43:13.184Z,10.92
2024-05-09T03:44:13.239Z,10.99
2024-05-09T03:45:13.178Z,10.94
2024-05-09T03:46:13.146Z,10.93
2024-05-09T03:47:13.168Z,11.00
2024-05-09T03:48:13.382Z,10.92
2024-05-09T03:49:13.250Z,10.99
2024-05-09T03:50:21.941Z,10.87
2024-05-09T03:51:14.127Z,10.87
2024-05-09T03:52:13.075Z,10.92
2024-05-09T03:53:13.264Z,10.92
2024-05-09T03:54:13.070Z,10.84
2024-05-09T03:55:13.045Z,10.82
2024-05-09T03:56:13.101Z,10.89
2024-05-09T03:57:13.021Z,10.78
2024-05-09T03:58:13.207Z,10.81
2024-05-09T03:59:13.064Z,10.81
2024-05-09T04:00:18.219Z,10.86
2024-05-09T04:01:14.020Z,10.84
2024-05-09T04:02:13.031Z,10.87
2024-05-09T04:03:13.622Z,10.82
2024-05-09T04:04:13.029Z,10.82
2024-05-09T04:05:12.982Z,10.72
2024-05-09T04:06:12.936Z,10.86
2024-05-09T04:07:12.906Z,10.84
2024-05-09T04:08:13.063Z,10.74
2024-05-09T04:09:12.888Z,10.72
2024-05-09T04:10:21.099Z,10.81
2024-05-09T04:11:14.073Z,10.71
2024-05-09T04:12:12.933Z,10.79
2024-05-09T04:13:12.881Z,10.84
2024-05-09T04:14:12.848Z,10.78
2024-05-09T04:15:13.651Z,10.87
2024-05-09T04:16:12.837Z,10.81
2024-05-09T04:17:12.834Z,10.79
2024-05-09T04:18:12.946Z,10.78
2024-05-09T04:19:12.908Z,10.81
2024-05-09T04:20:24.135Z,10.82
2024-05-09T04:21:13.827Z,10.82
2024-05-09T04:22:12.775Z,10.76
2024-05-09T04:23:13.650Z,10.89
2024-05-09T04:24:12.737Z,10.82
2024-05-09T04:25:12.731Z,10.86
2024-05-09T04:26:12.804Z,10.79
2024-05-09T04:27:12.688Z,10.86
2024-05-09T04:28:12.816Z,10.78
2024-05-09T04:29:12.749Z,10.78
2024-05-09T04:30:21.587Z,10.79
2024-05-09T04:31:13.645Z,10.82
2024-05-09T04:32:12.799Z,10.90
2024-05-09T04:33:14.258Z,10.86
2024-05-09T04:34:13.097Z,10.96
2024-05-09T04:35:12.697Z,10.97
2024-05-09T04:36:12.644Z,10.99
2024-05-09T04:37:12.770Z,11.04
2024-05-09T04:38:12.869Z,10.92
2024-05-09T04:39:12.570Z,11.02
2024-05-09T04:41:12.549Z,11.07
2024-05-09T04:42:12.512Z,11.08
2024-05-09T04:43:12.526Z,11.12
2024-05-09T04:44:12.556Z,10.94
2024-05-09T04:45:12.488Z,11.04
2024-05-09T04:46:12.648Z,11.05
2024-05-09T04:47:12.545Z,11.07
2024-05-09T04:48:12.627Z,11.04
2024-05-09T04:49:12.564Z,11.10
2024-05-09T04:50:17.877Z,11.07
2024-05-09T04:51:13.462Z,11.02
2024-05-09T04:52:12.412Z,11.08
2024-05-09T04:53:12.432Z,11.05
2024-05-09T04:54:22.241Z,11.08
2024-05-09T04:55:13.365Z,11.05
2024-05-09T04:56:12.490Z,11.05
2024-05-09T04:57:12.354Z,11.10
2024-05-09T04:58:12.453Z,11.11
2024-05-09T04:59:12.413Z,11.17
2024-05-09T05:00:14.827Z,11.26
2024-05-09T05:01:13.388Z,11.22
2024-05-09T05:02:12.434Z,11.25
2024-05-09T05:03:14.866Z,11.19
2024-05-09T05:04:12.370Z,11.19
2024-05-09T05:05:12.410Z,11.23
2024-05-09T05:06:12.293Z,11.23
2024-05-09T05:07:12.253Z,11.23
2024-05-09T05:08:12.426Z,11.18
2024-05-09T05:09:12.211Z,11.32
2024-05-09T05:10:17.897Z,11.33
2024-05-09T05:11:13.401Z,11.41
2024-05-09T05:12:12.402Z,11.30
2024-05-09T05:13:12.165Z,11.40
2024-05-09T05:14:12.198Z,11.44
2024-05-09T05:15:12.179Z,11.45
2024-05-09T05:16:12.181Z,11.51
2024-05-09T05:17:12.272Z,11.44
2024-05-09T05:18:12.203Z,11.51
2024-05-09T05:19:15.088Z,11.48
2024-05-09T05:20:15.378Z,11.57
2024-05-09T05:21:13.302Z,11.62
2024-05-09T05:22:12.096Z,11.62
2024-05-09T05:23:12.185Z,11.70
2024-05-09T05:24:12.090Z,11.68
2024-05-09T05:25:12.064Z,11.66
2024-05-09T05:26:12.050Z,11.78
2024-05-09T05:27:12.039Z,11.78
2024-05-09T05:28:12.002Z,11.86
2024-05-09T05:29:12.047Z,11.95
2024-05-09T05:30:17.859Z,12.02
2024-05-09T05:31:13.027Z,12.12
2024-05-09T05:32:12.102Z,12.15
2024-05-09T05:33:12.156Z,12.15
2024-05-09T05:34:12.001Z,12.28
2024-05-09T05:35:12.021Z,12.28
2024-05-09T05:36:11.916Z,12.40
2024-05-09T05:37:11.909Z,12.42
2024-05-09T05:38:11.979Z,12.58
2024-05-09T05:39:11.889Z,12.68
2024-05-09T05:40:14.608Z,12.79
2024-05-09T05:41:12.981Z,12.82
2024-05-09T05:42:11.847Z,12.94
2024-05-09T05:43:11.842Z,13.13
2024-05-09T05:44:11.893Z,13.19
2024-05-09T05:45:11.813Z,13.38
2024-05-09T05:46:11.814Z,13.42
2024-05-09T05:47:11.950Z,13.49
2024-05-09T05:48:11.926Z,13.59
2024-05-09T05:49:11.849Z,13.67
2024-05-09T05:50:21.010Z,13.75
2024-05-09T05:51:12.900Z,13.78
2024-05-09T05:52:11.735Z,13.99
2024-05-09T05:53:11.776Z,14.18
2024-05-09T05:54:11.735Z,14.29
2024-05-09T05:55:11.744Z,14.37
2024-05-09T05:56:11.699Z,14.45
2024-05-09T05:57:11.672Z,14.53
2024-05-09T05:58:11.779Z,14.63
2024-05-09T05:59:13.404Z,14.72
2024-05-09T06:00:18.054Z,14.77
2024-05-09T06:01:12.706Z,14.82
2024-05-09T06:02:11.720Z,14.88
2024-05-09T06:03:12.319Z,15.04
2024-05-09T06:04:11.684Z,15.02
2024-05-09T06:05:11.693Z,15.27
2024-05-09T06:06:11.666Z,15.37
2024-05-09T06:07:11.584Z,15.44
2024-05-09T06:08:11.748Z,15.59
2024-05-09T06:09:11.555Z,15.59
2024-05-09T06:10:17.404Z,15.79
2024-05-09T06:11:12.568Z,15.83
2024-05-09T06:12:11.736Z,15.97
2024-05-09T06:13:12.037Z,16.05
2024-05-09T06:14:11.562Z,16.16
2024-05-09T06:15:11.477Z,16.23
2024-05-09T06:16:11.479Z,16.36
2024-05-09T06:17:11.628Z,16.36
2024-05-09T06:18:12.554Z,16.47
2024-05-09T06:19:11.507Z,16.47
2024-05-09T06:20:20.179Z,16.57
2024-05-09T06:21:12.434Z,16.69
2024-05-09T06:22:11.394Z,16.74
2024-05-09T06:23:11.607Z,16.81
2024-05-09T06:24:11.380Z,16.84
2024-05-09T06:25:11.369Z,16.78
2024-05-09T06:26:11.444Z,16.84
2024-05-09T06:27:11.348Z,16.81
2024-05-09T06:28:11.474Z,16.87
2024-05-09T06:29:11.336Z,16.90
2024-05-09T06:30:24.824Z,16.89
2024-05-09T06:31:12.321Z,16.96
2024-05-09T06:32:11.402Z,16.91
2024-05-09T06:33:13.315Z,17.06
2024-05-09T06:34:11.352Z,17.11
2024-05-09T06:35:11.285Z,17.19
2024-05-09T06:36:11.255Z,17.23
2024-05-09T06:37:11.248Z,17.24
2024-05-09T06:38:11.804Z,17.36
2024-05-09T06:39:11.229Z,17.49
2024-05-09T06:40:12.565Z,17.63
2024-05-09T06:41:11.221Z,17.60
2024-05-09T06:42:11.184Z,17.67
2024-05-09T06:43:11.209Z,17.68
2024-05-09T06:44:11.203Z,17.70
2024-05-09T06:45:11.143Z,17.71
2024-05-09T06:46:11.138Z,17.60
2024-05-09T06:47:11.232Z,17.67
2024-05-09T06:48:11.406Z,17.59
2024-05-09T06:49:11.331Z,17.70
2024-05-09T06:50:19.683Z,17.70
2024-05-09T06:51:12.213Z,17.49
2024-05-09T06:52:11.063Z,17.49
2024-05-09T06:53:11.105Z,17.49
2024-05-09T06:54:11.056Z,17.34
2024-05-09T06:55:11.051Z,17.34
2024-05-09T06:56:11.060Z,17.34
2024-05-09T06:57:11.009Z,17.33
2024-05-09T06:58:11.003Z,17.23
2024-05-09T06:59:11.066Z,17.24
2024-05-09T07:00:15.449Z,17.24
2024-05-09T07:01:12.030Z,17.29
2024-05-09T07:02:11.016Z,17.27
2024-05-09T07:03:12.274Z,17.23
2024-05-09T07:04:11.253Z,17.29
2024-05-09T07:05:10.974Z,17.26
2024-05-09T07:06:10.975Z,17.27
2024-05-09T07:07:10.909Z,17.31
2024-05-09T07:08:11.015Z,17.38
2024-05-09T07:09:10.882Z,17.44
2024-05-09T07:10:21.553Z,17.31
2024-05-09T07:11:12.042Z,17.39
2024-05-09T07:12:10.959Z,17.39
2024-05-09T07:13:10.863Z,17.31
2024-05-09T07:14:10.855Z,17.34
2024-05-09T07:15:10.810Z,17.39
2024-05-09T07:16:10.809Z,17.51
2024-05-09T07:17:10.906Z,17.49
2024-05-09T07:18:11.082Z,17.54
2024-05-09T07:19:11.097Z,17.60
2024-05-09T07:20:16.195Z,17.57
2024-05-09T07:21:11.896Z,17.71
2024-05-09T07:22:10.738Z,17.82
2024-05-09T07:23:11.025Z,17.82
2024-05-09T07:24:10.718Z,17.76
2024-05-09T07:25:10.734Z,17.74
2024-05-09T07:26:10.724Z,17.80
2024-05-09T07:27:10.700Z,17.82
2024-05-09T07:28:10.675Z,17.80
2024-05-09T07:29:10.680Z,17.86
2024-05-09T07:30:13.620Z,17.83
2024-05-09T07:31:11.649Z,17.79
2024-05-09T07:32:10.651Z,17.82
2024-05-09T07:33:10.764Z,17.80
2024-05-09T07:34:10.706Z,17.80
2024-05-09T07:35:10.650Z,17.87
2024-05-09T07:36:10.593Z,17.82
2024-05-09T07:37:10.592Z,17.97
2024-05-09T07:38:10.652Z,18.04
2024-05-09T07:39:10.565Z,18.00
2024-05-09T07:40:14.738Z,18.04
2024-05-09T07:41:11.591Z,18.05
2024-05-09T07:42:10.517Z,18.05
2024-05-09T07:43:10.528Z,18.10
2024-05-09T07:44:10.520Z,18.08
2024-05-09T07:45:29.656Z,18.13
2024-05-09T07:47:13.968Z,18.11
2024-05-09T07:48:27.564Z,18.26
2024-05-09T07:49:44.922Z,18.22
2024-05-09T07:50:53.886Z,18.29
2024-05-09T07:53:29.251Z,18.34
2024-05-09T07:53:37.154Z,18.40
2024-05-09T07:54:11.629Z,18.38
2024-05-09T07:55:10.581Z,18.43
2024-05-09T07:56:11.727Z,18.38
2024-05-09T07:57:10.421Z,18.38
2024-05-09T07:58:10.376Z,18.52
2024-05-09T07:59:10.352Z,18.53
2024-05-09T08:00:14.300Z,18.65
2024-05-09T08:01:10.435Z,18.71
2024-05-09T08:02:10.505Z,18.73
2024-05-09T08:03:10.366Z,18.71
2024-05-09T08:04:10.342Z,18.71
2024-05-09T08:05:10.319Z,18.74
2024-05-09T08:06:10.284Z,18.74
2024-05-09T08:07:10.322Z,18.83
2024-05-09T08:08:10.239Z,18.84
2024-05-09T08:09:16.686Z,18.84
2024-05-09T08:10:15.250Z,18.84
2024-05-09T08:11:11.304Z,18.81
2024-05-09T08:12:10.214Z,18.93
2024-05-09T08:13:10.250Z,18.89
2024-05-09T08:14:10.170Z,18.86
2024-05-09T08:15:10.176Z,18.81
2024-05-09T08:16:10.421Z,18.88
2024-05-09T08:17:10.161Z,18.74
2024-05-09T08:18:10.416Z,18.77
2024-05-09T08:19:10.165Z,18.68
2024-05-09T08:20:11.416Z,18.68
2024-05-09T08:21:10.114Z,18.88
2024-05-09T08:22:10.186Z,18.98
2024-05-09T08:23:10.081Z,18.92
2024-05-09T08:24:10.060Z,18.95
2024-05-09T08:25:11.901Z,19.02
2024-05-09T08:26:10.033Z,19.07
2024-05-09T08:27:10.033Z,19.26
2024-05-09T08:28:10.072Z,19.34
2024-05-09T08:29:10.021Z,19.39
2024-05-09T08:30:18.560Z,19.49
2024-05-09T08:31:11.076Z,19.55
2024-05-09T08:32:10.025Z,19.64
2024-05-09T08:33:10.041Z,19.66
2024-05-09T08:34:10.189Z,19.58
2024-05-09T08:35:09.954Z,19.70
2024-05-09T08:36:09.914Z,19.69
2024-05-09T08:37:15.511Z,19.69
2024-05-09T08:38:11.045Z,19.67
2024-05-09T08:39:09.898Z,19.70
2024-05-09T08:40:16.677Z,19.85
2024-05-09T08:41:10.855Z,19.79
2024-05-09T08:42:09.849Z,19.86
2024-05-09T08:43:11.883Z,19.84
2024-05-09T08:44:09.855Z,19.89
2024-05-09T08:45:09.825Z,19.94
2024-05-09T08:46:09.818Z,20.07
2024-05-09T08:47:09.915Z,20.03
2024-05-09T08:48:09.889Z,20.21
2024-05-09T08:49:10.042Z,20.22
2024-05-09T08:50:19.952Z,20.34
2024-05-09T08:51:10.752Z,20.34
2024-05-09T08:52:09.858Z,20.31
2024-05-09T08:53:09.736Z,20.29
2024-05-09T08:54:09.736Z,20.22
2024-05-09T08:55:09.822Z,20.10
2024-05-09T08:56:09.726Z,20.10
2024-05-09T08:57:09.681Z,20.13
2024-05-09T08:58:09.789Z,20.11
2024-05-09T08:59:09.656Z,20.26
2024-05-09T09:00:14.824Z,20.26
2024-05-09T09:01:10.723Z,20.41
2024-05-09T09:02:09.796Z,20.44
2024-05-09T09:03:09.753Z,20.50
2024-05-09T09:04:09.806Z,20.60
2024-05-09T09:05:09.852Z,20.56
2024-05-09T09:06:09.630Z,20.52
2024-05-09T09:07:09.646Z,20.37
2024-05-09T09:08:09.567Z,20.41
2024-05-09T09:09:09.558Z,20.36
2024-05-09T09:10:12.950Z,20.31
2024-05-09T09:11:10.637Z,20.07
2024-05-09T09:12:10.738Z,20.07
2024-05-09T09:13:10.066Z,19.94
2024-05-09T09:14:09.497Z,19.76
2024-05-09T09:15:09.484Z,19.74
2024-05-09T09:16:09.536Z,19.59
2024-05-09T09:17:09.572Z,19.62
2024-05-09T09:18:11.706Z,19.88
2024-05-09T09:19:09.585Z,20.02
2024-05-09T09:20:14.313Z,20.04
2024-05-09T09:21:10.430Z,20.09
2024-05-09T09:22:09.422Z,20.06
2024-05-09T09:23:09.398Z,20.26
2024-05-09T09:24:10.068Z,20.26
2024-05-09T09:25:09.481Z,20.43
2024-05-09T09:26:09.362Z,20.55
2024-05-09T09:27:09.374Z,20.70
2024-05-09T09:28:09.962Z,20.77
2024-05-09T09:29:09.333Z,20.75
2024-05-09T09:30:22.852Z,20.63
2024-05-09T09:31:10.386Z,20.39
2024-05-09T09:32:09.308Z,20.11
2024-05-09T09:33:09.511Z,20.14
2024-05-09T09:34:09.499Z,20.06
2024-05-09T09:35:09.318Z,20.06
2024-05-09T09:36:11.554Z,20.26
2024-05-09T09:37:09.590Z,20.28
2024-05-09T09:38:09.243Z,20.26
2024-05-09T09:39:09.222Z,20.25
2024-05-09T09:40:12.862Z,20.37
2024-05-09T09:41:09.272Z,20.44
2024-05-09T09:42:09.190Z,20.58
2024-05-09T09:43:09.200Z,20.69
2024-05-09T09:44:09.181Z,20.81
2024-05-09T09:45:09.162Z,20.81
2024-05-09T09:46:12.339Z,20.87
2024-05-09T09:47:09.166Z,20.84
2024-05-09T09:48:09.227Z,20.92
2024-05-09T09:49:09.265Z,20.84
2024-05-09T09:50:14.305Z,20.93
2024-05-09T09:51:10.117Z,20.99
2024-05-09T09:52:11.136Z,21.07
2024-05-09T09:53:09.084Z,21.14
2024-05-09T09:54:09.059Z,21.22
2024-05-09T09:55:09.106Z,21.17
2024-05-09T09:56:09.160Z,21.21
2024-05-09T09:57:09.031Z,21.09
2024-05-09T09:58:12.180Z,21.20
2024-05-09T09:59:10.004Z,21.22
2024-05-09T10:00:11.881Z,21.14
2024-05-09T10:01:10.110Z,21.21
2024-05-09T10:02:09.350Z,20.99
2024-05-09T10:03:09.073Z,20.99
2024-05-09T10:04:09.054Z,20.72
2024-05-09T10:05:09.004Z,20.63
2024-05-09T10:06:09.004Z,20.50
2024-05-09T10:07:09.062Z,20.29
2024-05-09T10:08:08.910Z,20.03
2024-05-09T10:09:08.891Z,20.02
2024-05-09T10:10:11.028Z,20.09
2024-05-09T10:11:08.934Z,20.10
2024-05-09T10:12:09.526Z,20.16
2024-05-09T10:13:09.169Z,20.32
2024-05-09T10:14:08.836Z,20.56
2024-05-09T10:15:08.821Z,20.74
2024-05-09T10:16:08.878Z,20.93
2024-05-09T10:17:08.839Z,21.09
2024-05-09T10:18:08.959Z,21.18
2024-05-09T10:19:08.875Z,21.27
2024-05-09T10:20:14.891Z,21.32
2024-05-09T10:21:09.757Z,21.37
2024-05-09T10:22:08.904Z,21.43
2024-05-09T10:23:08.779Z,21.70
2024-05-09T10:24:08.735Z,21.73
2024-05-09T10:25:08.771Z,21.85
2024-05-09T10:26:08.806Z,21.88
2024-05-09T10:27:08.698Z,21.99
2024-05-09T10:28:08.812Z,21.79
2024-05-09T10:29:08.683Z,21.72
2024-05-09T10:30:14.421Z,21.69
2024-05-09T10:31:09.781Z,21.83
2024-05-09T10:32:08.649Z,21.80
2024-05-09T10:33:08.742Z,21.88
2024-05-09T10:34:08.836Z,21.76
2024-05-09T10:35:08.705Z,21.89
2024-05-09T10:36:08.596Z,21.99
2024-05-09T10:37:08.619Z,21.95
2024-05-09T10:38:08.565Z,21.98
2024-05-09T10:39:08.571Z,22.11
2024-05-09T10:40:14.107Z,22.11
2024-05-09T10:41:09.542Z,22.06
2024-05-09T10:42:08.527Z,21.99
2024-05-09T10:43:08.535Z,21.99
2024-05-09T10:44:08.512Z,21.96
2024-05-09T10:45:08.502Z,22.08
2024-05-09T10:46:08.722Z,22.15
2024-05-09T10:47:08.549Z,22.20
2024-05-09T10:48:08.552Z,22.30
2024-05-09T10:49:08.615Z,22.44
2024-05-09T10:50:18.015Z,22.39
2024-05-09T10:51:09.420Z,22.50
2024-05-09T10:52:08.620Z,22.38
2024-05-09T10:53:08.397Z,22.26
2024-05-09T10:54:08.395Z,22.17
2024-05-09T10:55:08.486Z,21.99
2024-05-09T10:56:08.370Z,22.07
2024-05-09T10:57:08.352Z,22.13
2024-05-09T10:58:08.568Z,22.14
2024-05-09T10:59:08.361Z,22.06
2024-05-09T11:00:15.597Z,22.13
2024-05-09T11:01:09.489Z,22.00
2024-05-09T11:02:08.685Z,21.83
2024-05-09T11:03:08.293Z,21.70
2024-05-09T11:04:08.482Z,21.80
2024-05-09T11:05:08.297Z,21.80
2024-05-09T11:06:08.276Z,21.67
2024-05-09T11:07:08.362Z,21.76
2024-05-09T11:08:08.251Z,21.69
2024-05-09T11:09:08.246Z,21.82
2024-05-09T11:10:12.487Z,21.95
2024-05-09T11:11:09.234Z,22.00
2024-05-09T11:12:08.318Z,21.95
2024-05-09T11:13:08.288Z,21.99
2024-05-09T11:14:08.165Z,22.07
2024-05-09T11:15:08.172Z,22.07
2024-05-09T11:16:08.206Z,22.13
2024-05-09T11:17:08.166Z,22.15
2024-05-09T11:18:08.250Z,22.06
2024-05-09T11:19:08.228Z,22.00
2024-05-09T11:20:13.565Z,21.95
2024-05-09T11:21:09.086Z,22.13
2024-05-09T11:22:08.173Z,22.11
2024-05-09T11:23:08.088Z,22.11
2024-05-09T11:24:10.988Z,22.10
2024-05-09T11:25:08.076Z,22.22
2024-05-09T11:26:08.047Z,22.23
2024-05-09T11:27:08.053Z,22.22
2024-05-09T11:28:08.071Z,22.25
2024-05-09T11:29:08.012Z,22.36
2024-05-09T11:30:14.186Z,22.36
2024-05-09T11:31:09.875Z,22.44
2024-05-09T11:32:08.092Z,22.41
2024-05-09T11:33:08.046Z,22.35
2024-05-09T11:34:07.976Z,22.26
2024-05-09T11:35:07.943Z,22.26
2024-05-09T11:36:07.946Z,22.28
2024-05-09T11:37:07.963Z,22.18
2024-05-09T11:38:07.933Z,22.28
2024-05-09T11:39:07.900Z,22.30
2024-05-09T11:40:13.755Z,22.39
2024-05-09T11:41:08.891Z,22.41
2024-05-09T11:42:07.935Z,22.29
2024-05-09T11:43:07.952Z,22.22
2024-05-09T11:44:07.835Z,22.07
2024-05-09T11:45:07.822Z,22.07
2024-05-09T11:46:07.835Z,22.28
2024-05-09T11:47:07.868Z,22.25
2024-05-09T11:48:07.832Z,22.28
2024-05-09T11:49:07.965Z,22.29
2024-05-09T11:50:08.201Z,22.39
2024-05-09T11:51:07.752Z,22.35
2024-05-09T11:52:07.826Z,22.35
2024-05-09T11:53:07.755Z,22.30
2024-05-09T11:54:07.733Z,22.08
2024-05-09T11:55:07.706Z,21.77
2024-05-09T11:56:07.699Z,21.66
2024-05-09T11:57:07.688Z,21.60
2024-05-09T11:58:07.752Z,21.43
2024-05-09T11:59:07.842Z,21.27
2024-05-09T12:00:09.671Z,21.27
2024-05-09T12:01:07.855Z,21.30
2024-05-09T12:02:07.800Z,21.43
2024-05-09T12:03:07.666Z,21.60
2024-05-09T12:04:07.753Z,21.66
2024-05-09T12:05:07.681Z,21.73
2024-05-09T12:06:07.745Z,21.70
2024-05-09T12:07:09.136Z,21.89
2024-05-09T12:08:07.594Z,21.83
2024-05-09T12:09:07.554Z,21.99
2024-05-09T12:10:11.937Z,21.95
2024-05-09T12:11:08.707Z,22.10
2024-05-09T12:12:07.552Z,22.20
2024-05-09T12:13:07.891Z,22.17
2024-05-09T12:14:07.502Z,22.18
2024-05-09T12:15:07.510Z,22.22
2024-05-09T12:16:07.520Z,22.28
2024-05-09T12:17:07.523Z,22.26
2024-05-09T12:18:08.304Z,22.33
2024-05-09T12:19:07.531Z,22.28
2024-05-09T12:20:14.265Z,22.26
2024-05-09T12:21:08.434Z,22.26
2024-05-09T12:22:07.543Z,22.29
2024-05-09T12:23:08.406Z,22.32
2024-05-09T12:24:07.439Z,22.35
2024-05-09T12:25:07.454Z,22.38
2024-05-09T12:26:07.370Z,22.36
2024-05-09T12:27:07.356Z,22.38
2024-05-09T12:28:07.493Z,22.45
2024-05-09T12:29:07.344Z,22.48
2024-05-09T12:30:11.298Z,22.55
2024-05-09T12:31:07.370Z,22.54
2024-05-09T12:32:07.396Z,22.51
2024-05-09T12:33:07.700Z,22.50
2024-05-09T12:34:07.384Z,22.51
2024-05-09T12:35:07.273Z,22.41
2024-05-09T12:36:07.268Z,22.45
2024-05-09T12:37:07.294Z,22.39
2024-05-09T12:38:07.270Z,22.44
2024-05-09T12:39:07.234Z,22.45
2024-05-09T12:40:12.682Z,22.55
2024-05-09T12:41:08.249Z,22.62
2024-05-09T12:42:07.291Z,22.84
2024-05-09T12:43:08.078Z,22.81
2024-05-09T12:44:07.178Z,22.84
2024-05-09T12:45:07.191Z,22.66
2024-05-09T12:46:07.290Z,22.68
2024-05-09T12:47:07.146Z,22.66
2024-05-09T12:48:07.724Z,22.78
2024-05-09T12:49:07.451Z,22.88
2024-05-09T12:50:13.393Z,22.83
2024-05-09T12:51:08.122Z,22.83
2024-05-09T12:52:07.174Z,22.76
2024-05-09T12:53:07.078Z,22.69
2024-05-09T12:54:07.067Z,22.65
2024-05-09T12:55:07.108Z,22.65
2024-05-09T12:56:09.221Z,22.68